Terminal Aerodrome Forecast
Issued by NWS

Home | Current Version | Previous Version | Text Only | Print | Product List | Glossary On
Versions: 1 2 3 4 5 6 7 8 9 10 11 12 13 14 15
000
FTUS46 KMFR 270533
TAFRBG
TAF
KRBG 270533Z 2706/2806 16007KT P6SM -SHRA OVC040
     FM271200 16005KT P6SM -SHRA BKN025 OVC040
     FM271700 17007KT P6SM VCSH SCT030 OVC040
     FM280300 VRB02KT P6SM SCT040 BKN100=

USA.gov is the U.S. government's official web portal to all federal, state and local government web resources and services.